Alkor — DBND — position and weather

sailwx.info

Track history (hours):
 
Tides and Currents Weather Stations Pressure Air Temp Water Temp Dewpoint Dewpoint Depression Visibility Wind Speed Wind Dir Waves Ship Positions

Oceanographic research ship Alkor (Germany)

Ship's website: http://www.briese.de/

Detailed information on ship capabilities available from University of Delaware's Ocean Information Center.

Last reported at 2020-Jul-03 17:50 UTC. Time now 2020-Jul-03 20:55 UTC.
Position N 54°20' E 010°09'.

Length 55 m; draft 4.2 m.

Type: Ship. MMSI: 211216512.

Date/timePositionNaut miles runAvg speedWind from/ knotsBaromVisibWave heightAir tempDewpointWater temp
2020-Jul-03 17:50N 54°20' E 010°09'0 0.0
2020-Jul-03 16:23N 54°20' E 010°09'0 0.0
2020-Jul-03 15:53N 54°20' E 010°09'0 0.0
2020-Jul-03 15:23N 54°20' E 010°09'0 0.0
2020-Jul-03 14:23N 54°20' E 010°09'0 0.0
2020-Jul-03 13:56N 54°20' E 010°09'0 0.0
2020-Jul-03 13:26N 54°20' E 010°09'1 0.3
2020-Jul-03 10:20N 54°20' E 010°11'0 0.0
2020-Jul-03 09:53N 54°20' E 010°11'0 0.0
2020-Jul-03 09:23N 54°20' E 010°11'0 0.0
2020-Jul-03 08:53N 54°20' E 010°11'0 0.0
2020-Jul-03 08:23N 54°20' E 010°11'0 0.0
2020-Jul-03 06:23N 54°20' E 010°11'1 0.4
2020-Jul-03 03:59N 54°20' E 010°09'0 0.0
2020-Jul-03 02:59N 54°20' E 010°09'0 0.0
2020-Jul-03 02:20N 54°20' E 010°09'0 0.0
2020-Jul-02 20:29N 54°20' E 010°09'0 0.0
2020-Jul-02 19:20N 54°20' E 010°09'0 0.0
2020-Jul-02 18:20N 54°20' E 010°09'0 0.0
2020-Jul-02 15:53N 54°20' E 010°09'0 0.0
2020-Jul-02 14:26N 54°20' E 010°09'1 0.3
2020-Jul-02 11:30N 54°20' E 010°11'1 1.0
2020-Jul-02 11:00N 54°20' E 010°10'1 2.0
2020-Jul-02 10:30N 54°21' E 010°09'0 0.1
2020-Jul-02 09:30N 54°21' E 010°09'0 0.1
2020-Jul-02 09:00N 54°21' E 010°09'4 1.5
2020-Jul-02 06:30N 54°25' E 010°13'5 2.1
2020-Jul-02 04:00N 54°20' E 010°09'0 0.0
2020-Jul-02 03:30N 54°20' E 010°09'0 0.0
2020-Jul-02 02:30N 54°20' E 010°09'0 0.0
2020-Jul-02 01:30N 54°20' E 010°09'0 0.0
2020-Jul-01 23:21N 54°20' E 010°09'0 0.0
2020-Jul-01 18:24N 54°20' E 010°09'0 0.0
2020-Jul-01 15:57N 54°20' E 010°09'0 0.0
2020-Jul-01 13:30N 54°20' E 010°09'0 0.0
2020-Jul-01 05:29N 54°20' E 010°09'0 0.0
2020-Jul-01 03:59N 54°20' E 010°09'0 0.0
2020-Jul-01 02:20N 54°20' E 010°09'0 0.0
2020-Jun-30 23:53N 54°20' E 010°09'0 0.0
2020-Jun-30 21:26N 54°20' E 010°09'0 0.0
2020-Jun-30 18:29N 54°20' E 010°09'0 0.0
2020-Jun-30 17:59N 54°20' E 010°09'0 0.0
2020-Jun-30 15:11N 54°20' E 010°09'0 0.0
2020-Jun-30 14:30N 54°20' E 010°09'1 0.8
2020-Jun-30 13:20N 54°20' E 010°11'0 0.3
2020-Jun-30 11:39N 54°20' E 010°10'6 1.5
2020-Jun-30 07:30N 54°26' E 010°11'6 6.2
2020-Jun-30 06:30N 54°20' E 010°11'1 0.3
2020-Jun-30 03:29N 54°20' E 010°09'0 0.0
2020-Jun-30 02:29N 54°20' E 010°09'0 0.0
2020-Jun-30 00:29N 54°20' E 010°09'0 0.0
2020-Jun-29 22:50N 54°20' E 010°09'0 0.0
2020-Jun-29 22:23N 54°20' E 010°09'0 0.0
2020-Jun-29 21:23N 54°20' E 010°09'0 0.0
2020-Jun-29 16:26N 54°20' E 010°09'0 0.0
2020-Jun-29 15:56N 54°20' E 010°09'0 0.0
2020-Jun-29 13:59N 54°20' E 010°09'0 0.0
2020-Jun-29 13:29N 54°20' E 010°09'0 0.0
2020-Jun-29 06:47N 54°20' E 010°09'0 0.0
2020-Jun-29 05:29N 54°20' E 010°09'0 0.0
2020-Jun-29 04:29N 54°20' E 010°09'0 0.0
2020-Jun-29 00:23N 54°20' E 010°09'0 0.0
2020-Jun-28 23:23N 54°20' E 010°09'0 0.0
2020-Jun-28 22:23N 54°20' E 010°09'0 0.0
2020-Jun-28 21:53N 54°20' E 010°09'0 0.0
2020-Jun-28 21:26N 54°20' E 010°09'0 0.0
2020-Jun-28 18:23N 54°20' E 010°09'0 0.0
2020-Jun-28 14:23N 54°20' E 010°09'0 0.0
2020-Jun-28 13:23N 54°20' E 010°09'0 0.0
2020-Jun-28 11:56N 54°20' E 010°09'0 0.0
2020-Jun-28 07:29N 54°20' E 010°09'0 0.0
2020-Jun-28 04:56N 54°20' E 010°09'0 0.0
2020-Jun-28 02:29N 54°20' E 010°09'0 0.0
2020-Jun-28 01:29N 54°20' E 010°09'0 0.0
2020-Jun-27 22:56N 54°20' E 010°09'0 0.0
2020-Jun-27 22:29N 54°20' E 010°09'0 0.0
2020-Jun-27 19:29N 54°20' E 010°09'0 0.0
2020-Jun-27 18:47N 54°20' E 010°09'0 0.0
2020-Jun-27 16:23N 54°20' E 010°09'0 0.0
2020-Jun-27 13:56N 54°20' E 010°09'0 0.0
2020-Jun-27 13:26N 54°20' E 010°09'0 0.0
2020-Jun-27 09:26N 54°20' E 010°09'0 0.0
2020-Jun-27 07:56N 54°20' E 010°09'0 0.0
2020-Jun-27 07:26N 54°20' E 010°09'0 0.0
2020-Jun-27 05:56N 54°20' E 010°09'0 0.0
2020-Jun-27 02:29N 54°20' E 010°09'0 0.0
2020-Jun-27 01:59N 54°20' E 010°09'0 0.0
2020-Jun-27 00:59N 54°20' E 010°09'0 0.0
2020-Jun-26 22:59N 54°20' E 010°09'0 0.0
2020-Jun-26 20:59N 54°20' E 010°09'0 0.0
2020-Jun-26 20:20N 54°20' E 010°09'0 0.0
2020-Jun-26 18:53N 54°20' E 010°09'0 0.0
2020-Jun-26 17:23N 54°20' E 010°09'0 0.0
2020-Jun-26 15:56N 54°20' E 010°09'0 0.0
2020-Jun-26 13:56N 54°20' E 010°09'0 0.0
2020-Jun-26 12:59N 54°20' E 010°09'0 0.0
2020-Jun-26 12:29N 54°20' E 010°09'0 0.3
2020-Jun-26 12:00N 54°20' E 010°09'5 9.3
2020-Jun-26 11:30N 54°24' E 010°12'510.3
2020-Jun-26 11:01N 54°29' E 010°13'7 2.3
2020-Jun-26 08:01N 54°31' E 010°01'2 3.2
2020-Jun-26 07:30N 54°30' E 009°58'2 3.3
2020-Jun-26 07:00N 54°29' E 009°56'3 2.6
2020-Jun-26 06:00N 54°28' E 009°52'2 3.3
2020-Jun-26 05:30N 54°29' E 009°54'6 1.9
2020-Jun-26 02:31N 54°32' E 010°03'0 0.0
2020-Jun-26 00:31N 54°32' E 010°03'1 0.2
2020-Jun-25 20:01N 54°31' E 010°01'2 1.5
2020-Jun-25 19:01N 54°30' E 009°60'2 2.0
2020-Jun-25 18:00N 54°30' E 010°03'3 2.0
2020-Jun-25 16:31N 54°30' E 009°58'1 0.5
2020-Jun-25 14:30N 54°30' E 010°00'0 0.2
2020-Jun-25 13:00N 54°30' E 010°01'1 2.8
2020-Jun-25 12:31N 54°30' E 010°03'0 0.1
2020-Jun-25 12:01N 54°30' E 010°03'1 2.5
2020-Jun-25 11:30N 54°30' E 010°01'1 0.3
2020-Jun-25 09:29N 54°30' E 010°02'1 1.2
2020-Jun-25 08:30N 54°30' E 010°04'10 2.9
2020-Jun-25 04:58N 54°20' E 010°09'0 0.0
2020-Jun-25 03:58N 54°20' E 010°09'0 0.0
2020-Jun-25 02:58N 54°20' E 010°09'0 0.0
2020-Jun-25 01:58N 54°20' E 010°09'0 0.0
2020-Jun-25 01:28N 54°20' E 010°09'0 0.0
2020-Jun-24 23:52N 54°20' E 010°09'0 0.0
2020-Jun-24 20:55N 54°20' E 010°09'0 0.0
2020-Jun-24 18:25N 54°20' E 010°09'0 0.0
2020-Jun-24 15:28N 54°20' E 010°09'0 0.0
2020-Jun-24 13:58N 54°20' E 010°09'1 0.7
2020-Jun-24 12:00N 54°21' E 010°10'510.6
2020-Jun-24 11:30N 54°26' E 010°13'8 5.6
2020-Jun-24 10:01N 54°32' E 010°02'0 0.0
2020-Jun-24 07:00N 54°32' E 010°02'7 7.2
2020-Jun-24 06:01N 54°28' E 009°52'1 0.4
2020-Jun-24 03:46N 54°28' E 009°50'0 0.0
2020-Jun-24 02:58N 54°28' E 009°50'0 0.0
2020-Jun-24 02:28N 54°28' E 009°50'0 0.0
2020-Jun-24 00:46N 54°28' E 009°50'0 0.0
2020-Jun-23 21:52N 54°28' E 009°50'0 0.0
2020-Jun-23 21:22N 54°28' E 009°50'0 0.0
2020-Jun-23 18:25N 54°28' E 009°50'  
Track history (hours):
 
Tides and Currents Weather Stations Pressure Air Temp Water Temp Dewpoint Dewpoint Depression Visibility Wind Speed Wind Dir Waves Ship Positions

Oceanographic research ship Alkor (Germany)

Ship's website: http://www.briese.de/

Detailed information on ship capabilities available from University of Delaware's Ocean Information Center.

Last reported at 2020-Jul-03 17:50 UTC. Time now 2020-Jul-03 20:55 UTC.
Position N 54°20' E 010°09'.

Length 55 m; draft 4.2 m.

Type: Ship. MMSI: 211216512.

Date/timePositionNaut miles runAvg speedWind from/ knotsBaromVisibWave heightAir tempDewpointWater temp
2020-Jul-03 17:50N 54°20' E 010°09'0 0.0
2020-Jul-03 16:23N 54°20' E 010°09'0 0.0
2020-Jul-03 15:53N 54°20' E 010°09'0 0.0
2020-Jul-03 15:23N 54°20' E 010°09'0 0.0
2020-Jul-03 14:23N 54°20' E 010°09'0 0.0
2020-Jul-03 13:56N 54°20' E 010°09'0 0.0
2020-Jul-03 13:26N 54°20' E 010°09'1 0.3
2020-Jul-03 10:20N 54°20' E 010°11'0 0.0
2020-Jul-03 09:53N 54°20' E 010°11'0 0.0
2020-Jul-03 09:23N 54°20' E 010°11'0 0.0
2020-Jul-03 08:53N 54°20' E 010°11'0 0.0
2020-Jul-03 08:23N 54°20' E 010°11'0 0.0
2020-Jul-03 06:23N 54°20' E 010°11'1 0.4
2020-Jul-03 03:59N 54°20' E 010°09'0 0.0
2020-Jul-03 02:59N 54°20' E 010°09'0 0.0
2020-Jul-03 02:20N 54°20' E 010°09'0 0.0
2020-Jul-02 20:29N 54°20' E 010°09'0 0.0
2020-Jul-02 19:20N 54°20' E 010°09'0 0.0
2020-Jul-02 18:20N 54°20' E 010°09'0 0.0
2020-Jul-02 15:53N 54°20' E 010°09'0 0.0
2020-Jul-02 14:26N 54°20' E 010°09'1 0.3
2020-Jul-02 11:30N 54°20' E 010°11'1 1.0
2020-Jul-02 11:00N 54°20' E 010°10'1 2.0
2020-Jul-02 10:30N 54°21' E 010°09'0 0.1
2020-Jul-02 09:30N 54°21' E 010°09'0 0.1
2020-Jul-02 09:00N 54°21' E 010°09'4 1.5
2020-Jul-02 06:30N 54°25' E 010°13'5 2.1
2020-Jul-02 04:00N 54°20' E 010°09'0 0.0
2020-Jul-02 03:30N 54°20' E 010°09'0 0.0
2020-Jul-02 02:30N 54°20' E 010°09'0 0.0
2020-Jul-02 01:30N 54°20' E 010°09'0 0.0
2020-Jul-01 23:21N 54°20' E 010°09'0 0.0
2020-Jul-01 18:24N 54°20' E 010°09'0 0.0
2020-Jul-01 15:57N 54°20' E 010°09'0 0.0
2020-Jul-01 13:30N 54°20' E 010°09'0 0.0
2020-Jul-01 05:29N 54°20' E 010°09'0 0.0
2020-Jul-01 03:59N 54°20' E 010°09'0 0.0
2020-Jul-01 02:20N 54°20' E 010°09'0 0.0
2020-Jun-30 23:53N 54°20' E 010°09'0 0.0
2020-Jun-30 21:26N 54°20' E 010°09'0 0.0
2020-Jun-30 18:29N 54°20' E 010°09'0 0.0
2020-Jun-30 17:59N 54°20' E 010°09'0 0.0
2020-Jun-30 15:11N 54°20' E 010°09'0 0.0
2020-Jun-30 14:30N 54°20' E 010°09'1 0.8
2020-Jun-30 13:20N 54°20' E 010°11'0 0.3
2020-Jun-30 11:39N 54°20' E 010°10'6 1.5
2020-Jun-30 07:30N 54°26' E 010°11'6 6.2
2020-Jun-30 06:30N 54°20' E 010°11'1 0.3
2020-Jun-30 03:29N 54°20' E 010°09'0 0.0
2020-Jun-30 02:29N 54°20' E 010°09'0 0.0
2020-Jun-30 00:29N 54°20' E 010°09'0 0.0
2020-Jun-29 22:50N 54°20' E 010°09'0 0.0
2020-Jun-29 22:23N 54°20' E 010°09'0 0.0
2020-Jun-29 21:23N 54°20' E 010°09'0 0.0
2020-Jun-29 16:26N 54°20' E 010°09'0 0.0
2020-Jun-29 15:56N 54°20' E 010°09'0 0.0
2020-Jun-29 13:59N 54°20' E 010°09'0 0.0
2020-Jun-29 13:29N 54°20' E 010°09'0 0.0
2020-Jun-29 06:47N 54°20' E 010°09'0 0.0
2020-Jun-29 05:29N 54°20' E 010°09'0 0.0
2020-Jun-29 04:29N 54°20' E 010°09'0 0.0
2020-Jun-29 00:23N 54°20' E 010°09'0 0.0
2020-Jun-28 23:23N 54°20' E 010°09'0 0.0
2020-Jun-28 22:23N 54°20' E 010°09'0 0.0
2020-Jun-28 21:53N 54°20' E 010°09'0 0.0
2020-Jun-28 21:26N 54°20' E 010°09'0 0.0
2020-Jun-28 18:23N 54°20' E 010°09'0 0.0
2020-Jun-28 14:23N 54°20' E 010°09'0 0.0
2020-Jun-28 13:23N 54°20' E 010°09'0 0.0
2020-Jun-28 11:56N 54°20' E 010°09'0 0.0
2020-Jun-28 07:29N 54°20' E 010°09'0 0.0
2020-Jun-28 04:56N 54°20' E 010°09'0 0.0
2020-Jun-28 02:29N 54°20' E 010°09'0 0.0
2020-Jun-28 01:29N 54°20' E 010°09'0 0.0
2020-Jun-27 22:56N 54°20' E 010°09'0 0.0
2020-Jun-27 22:29N 54°20' E 010°09'0 0.0
2020-Jun-27 19:29N 54°20' E 010°09'0 0.0
2020-Jun-27 18:47N 54°20' E 010°09'0 0.0
2020-Jun-27 16:23N 54°20' E 010°09'0 0.0
2020-Jun-27 13:56N 54°20' E 010°09'0 0.0
2020-Jun-27 13:26N 54°20' E 010°09'0 0.0
2020-Jun-27 09:26N 54°20' E 010°09'0 0.0
2020-Jun-27 07:56N 54°20' E 010°09'0 0.0
2020-Jun-27 07:26N 54°20' E 010°09'0 0.0
2020-Jun-27 05:56N 54°20' E 010°09'0 0.0
2020-Jun-27 02:29N 54°20' E 010°09'0 0.0
2020-Jun-27 01:59N 54°20' E 010°09'0 0.0
2020-Jun-27 00:59N 54°20' E 010°09'0 0.0
2020-Jun-26 22:59N 54°20' E 010°09'0 0.0
2020-Jun-26 20:59N 54°20' E 010°09'0 0.0
2020-Jun-26 20:20N 54°20' E 010°09'0 0.0
2020-Jun-26 18:53N 54°20' E 010°09'0 0.0
2020-Jun-26 17:23N 54°20' E 010°09'0 0.0
2020-Jun-26 15:56N 54°20' E 010°09'0 0.0
2020-Jun-26 13:56N 54°20' E 010°09'0 0.0
2020-Jun-26 12:59N 54°20' E 010°09'0 0.0
2020-Jun-26 12:29N 54°20' E 010°09'0 0.3
2020-Jun-26 12:00N 54°20' E 010°09'5 9.3
2020-Jun-26 11:30N 54°24' E 010°12'510.3
2020-Jun-26 11:01N 54°29' E 010°13'7 2.3
2020-Jun-26 08:01N 54°31' E 010°01'2 3.2
2020-Jun-26 07:30N 54°30' E 009°58'2 3.3
2020-Jun-26 07:00N 54°29' E 009°56'3 2.6
2020-Jun-26 06:00N 54°28' E 009°52'2 3.3
2020-Jun-26 05:30N 54°29' E 009°54'6 1.9
2020-Jun-26 02:31N 54°32' E 010°03'0 0.0
2020-Jun-26 00:31N 54°32' E 010°03'1 0.2
2020-Jun-25 20:01N 54°31' E 010°01'2 1.5
2020-Jun-25 19:01N 54°30' E 009°60'2 2.0
2020-Jun-25 18:00N 54°30' E 010°03'3 2.0
2020-Jun-25 16:31N 54°30' E 009°58'1 0.5
2020-Jun-25 14:30N 54°30' E 010°00'0 0.2
2020-Jun-25 13:00N 54°30' E 010°01'1 2.8
2020-Jun-25 12:31N 54°30' E 010°03'0 0.1
2020-Jun-25 12:01N 54°30' E 010°03'1 2.5
2020-Jun-25 11:30N 54°30' E 010°01'1 0.3
2020-Jun-25 09:29N 54°30' E 010°02'1 1.2
2020-Jun-25 08:30N 54°30' E 010°04'10 2.9
2020-Jun-25 04:58N 54°20' E 010°09'0 0.0
2020-Jun-25 03:58N 54°20' E 010°09'0 0.0
2020-Jun-25 02:58N 54°20' E 010°09'0 0.0
2020-Jun-25 01:58N 54°20' E 010°09'0 0.0
2020-Jun-25 01:28N 54°20' E 010°09'0 0.0
2020-Jun-24 23:52N 54°20' E 010°09'0 0.0
2020-Jun-24 20:55N 54°20' E 010°09'0 0.0
2020-Jun-24 18:25N 54°20' E 010°09'0 0.0
2020-Jun-24 15:28N 54°20' E 010°09'0 0.0
2020-Jun-24 13:58N 54°20' E 010°09'1 0.7
2020-Jun-24 12:00N 54°21' E 010°10'510.6
2020-Jun-24 11:30N 54°26' E 010°13'8 5.6
2020-Jun-24 10:01N 54°32' E 010°02'0 0.0
2020-Jun-24 07:00N 54°32' E 010°02'7 7.2
2020-Jun-24 06:01N 54°28' E 009°52'1 0.4
2020-Jun-24 03:46N 54°28' E 009°50'0 0.0
2020-Jun-24 02:58N 54°28' E 009°50'0 0.0
2020-Jun-24 02:28N 54°28' E 009°50'0 0.0
2020-Jun-24 00:46N 54°28' E 009°50'0 0.0
2020-Jun-23 21:52N 54°28' E 009°50'0 0.0
2020-Jun-23 21:22N 54°28' E 009°50'0 0.0
2020-Jun-23 18:25N 54°28' E 009°50'  

Dump ship's entire track history